sensor_id;sensor_type;location;lat;lon;timestamp;P1;durP1;ratioP1;P2;durP2;ratioP2
15553;SDS011;7878;44.632;10.942;2023-07-29T00:01:34;6.28;;;4.28;;
15553;SDS011;7878;44.632;10.942;2023-07-29T00:04:00;8.38;;;4.20;;
15553;SDS011;7878;44.632;10.942;2023-07-29T00:06:26;9.57;;;4.45;;
15553;SDS011;7878;44.632;10.942;2023-07-29T00:08:52;6.63;;;4.47;;
15553;SDS011;7878;44.632;10.942;2023-07-29T00:11:17;5.78;;;4.32;;
15553;SDS011;7878;44.632;10.942;2023-07-29T00:13:43;5.47;;;4.43;;
15553;SDS011;7878;44.632;10.942;2023-07-29T00:16:09;6.45;;;4.00;;
15553;SDS011;7878;44.632;10.942;2023-07-29T00:18:35;7.78;;;4.25;;
15553;SDS011;7878;44.632;10.942;2023-07-29T00:21:01;6.20;;;4.20;;
15553;SDS011;7878;44.632;10.942;2023-07-29T00:23:27;10.40;;;4.40;;
15553;SDS011;7878;44.632;10.942;2023-07-29T00:25:52;5.88;;;4.32;;
15553;SDS011;7878;44.632;10.942;2023-07-29T00:28:18;8.45;;;3.92;;
15553;SDS011;7878;44.632;10.942;2023-07-29T00:30:44;5.68;;;4.00;;
15553;SDS011;7878;44.632;10.942;2023-07-29T00:33:09;6.65;;;3.90;;
15553;SDS011;7878;44.632;10.942;2023-07-29T00:35:35;6.50;;;4.40;;
15553;SDS011;7878;44.632;10.942;2023-07-29T00:38:01;6.78;;;4.22;;
15553;SDS011;7878;44.632;10.942;2023-07-29T00:40:27;6.43;;;4.15;;
15553;SDS011;7878;44.632;10.942;2023-07-29T00:42:54;5.72;;;4.43;;
15553;SDS011;7878;44.632;10.942;2023-07-29T00:45:19;8.02;;;4.57;;
15553;SDS011;7878;44.632;10.942;2023-07-29T00:47:45;10.95;;;4.50;;
15553;SDS011;7878;44.632;10.942;2023-07-29T00:50:12;10.82;;;4.55;;
15553;SDS011;7878;44.632;10.942;2023-07-29T00:52:39;8.15;;;4.57;;
15553;SDS011;7878;44.632;10.942;2023-07-29T00:55:06;6.32;;;4.15;;
15553;SDS011;7878;44.632;10.942;2023-07-29T00:57:33;7.18;;;4.38;;
15553;SDS011;7878;44.632;10.942;2023-07-29T01:00:00;5.97;;;3.83;;
15553;SDS011;7878;44.632;10.942;2023-07-29T01:02:27;7.10;;;4.10;;
15553;SDS011;7878;44.632;10.942;2023-07-29T01:04:54;7.85;;;4.22;;
15553;SDS011;7878;44.632;10.942;2023-07-29T01:07:24;6.65;;;3.90;;
15553;SDS011;7878;44.632;10.942;2023-07-29T01:10:03;4.80;;;3.80;;
15553;SDS011;7878;44.632;10.942;2023-07-29T01:17:32;6.28;;;3.60;;
15553;SDS011;7878;44.632;10.942;2023-07-29T01:22:31;6.03;;;3.80;;
15553;SDS011;7878;44.632;10.942;2023-07-29T01:24:58;10.43;;;3.78;;
15553;SDS011;7878;44.632;10.942;2023-07-29T01:27:24;9.18;;;5.03;;
15553;SDS011;7878;44.632;10.942;2023-07-29T01:29:51;7.55;;;4.85;;
15553;SDS011;7878;44.632;10.942;2023-07-29T01:35:27;7.43;;;4.20;;
15553;SDS011;7878;44.632;10.942;2023-07-29T01:38:12;9.05;;;4.20;;
15553;SDS011;7878;44.632;10.942;2023-07-29T01:40:43;11.38;;;5.00;;
15553;SDS011;7878;44.632;10.942;2023-07-29T01:43:10;8.35;;;4.57;;
15553;SDS011;7878;44.632;10.942;2023-07-29T01:45:36;9.70;;;4.82;;
15553;SDS011;7878;44.632;10.942;2023-07-29T01:48:06;5.32;;;4.35;;
15553;SDS011;7878;44.632;10.942;2023-07-29T01:50:32;9.77;;;4.60;;
15553;SDS011;7878;44.632;10.942;2023-07-29T01:52:59;8.05;;;4.63;;
15553;SDS011;7878;44.632;10.942;2023-07-29T01:55:24;7.78;;;4.72;;
15553;SDS011;7878;44.632;10.942;2023-07-29T01:57:50;5.70;;;4.38;;
15553;SDS011;7878;44.632;10.942;2023-07-29T02:00:17;5.07;;;4.55;;
15553;SDS011;7878;44.632;10.942;2023-07-29T02:02:44;6.82;;;4.93;;
15553;SDS011;7878;44.632;10.942;2023-07-29T02:05:09;6.10;;;4.75;;
15553;SDS011;7878;44.632;10.942;2023-07-29T02:07:35;7.28;;;4.88;;
15553;SDS011;7878;44.632;10.942;2023-07-29T02:10:01;6.88;;;4.63;;
15553;SDS011;7878;44.632;10.942;2023-07-29T02:12:27;5.55;;;4.20;;
15553;SDS011;7878;44.632;10.942;2023-07-29T02:14:52;5.93;;;4.65;;
15553;SDS011;7878;44.632;10.942;2023-07-29T02:17:18;11.68;;;4.63;;
15553;SDS011;7878;44.632;10.942;2023-07-29T02:19:44;5.13;;;4.55;;
15553;SDS011;7878;44.632;10.942;2023-07-29T02:22:16;8.02;;;4.47;;
15553;SDS011;7878;44.632;10.942;2023-07-29T02:24:42;9.63;;;4.47;;
15553;SDS011;7878;44.632;10.942;2023-07-29T02:27:08;8.43;;;5.10;;
15553;SDS011;7878;44.632;10.942;2023-07-29T02:29:34;9.10;;;4.55;;
15553;SDS011;7878;44.632;10.942;2023-07-29T02:32:00;6.28;;;5.03;;
15553;SDS011;7878;44.632;10.942;2023-07-29T02:34:26;6.90;;;4.57;;
15553;SDS011;7878;44.632;10.942;2023-07-29T02:36:51;6.38;;;4.43;;
15553;SDS011;7878;44.632;10.942;2023-07-29T02:39:17;5.78;;;4.60;;
15553;SDS011;7878;44.632;10.942;2023-07-29T02:41:42;8.68;;;5.43;;
15553;SDS011;7878;44.632;10.942;2023-07-29T02:44:08;6.90;;;4.43;;
15553;SDS011;7878;44.632;10.942;2023-07-29T02:46:34;7.25;;;4.82;;
15553;SDS011;7878;44.632;10.942;2023-07-29T02:49:01;7.60;;;5.45;;
15553;SDS011;7878;44.632;10.942;2023-07-29T02:51:28;8.13;;;5.22;;
15553;SDS011;7878;44.632;10.942;2023-07-29T02:53:54;7.53;;;5.38;;
15553;SDS011;7878;44.632;10.942;2023-07-29T02:56:19;10.80;;;5.05;;
15553;SDS011;7878;44.632;10.942;2023-07-29T02:58:45;7.38;;;4.47;;
15553;SDS011;7878;44.632;10.942;2023-07-29T03:01:11;6.55;;;5.05;;
15553;SDS011;7878;44.632;10.942;2023-07-29T03:03:36;12.27;;;5.53;;
15553;SDS011;7878;44.632;10.942;2023-07-29T03:06:06;7.97;;;5.30;;
15553;SDS011;7878;44.632;10.942;2023-07-29T03:08:33;7.07;;;4.45;;
15553;SDS011;7878;44.632;10.942;2023-07-29T03:11:04;8.57;;;5.13;;
15553;SDS011;7878;44.632;10.942;2023-07-29T03:13:32;8.52;;;4.93;;
15553;SDS011;7878;44.632;10.942;2023-07-29T03:16:07;5.45;;;4.93;;
15553;SDS011;7878;44.632;10.942;2023-07-29T03:18:34;8.48;;;5.15;;
15553;SDS011;7878;44.632;10.942;2023-07-29T03:21:00;9.40;;;4.72;;
15553;SDS011;7878;44.632;10.942;2023-07-29T03:23:30;13.68;;;4.65;;
15553;SDS011;7878;44.632;10.942;2023-07-29T03:25:57;9.60;;;4.57;;
15553;SDS011;7878;44.632;10.942;2023-07-29T03:28:27;8.27;;;4.97;;
15553;SDS011;7878;44.632;10.942;2023-07-29T03:30:54;7.75;;;4.82;;
15553;SDS011;7878;44.632;10.942;2023-07-29T03:33:20;7.82;;;5.32;;
15553;SDS011;7878;44.632;10.942;2023-07-29T03:35:46;12.02;;;6.03;;
15553;SDS011;7878;44.632;10.942;2023-07-29T03:38:12;10.80;;;6.45;;
15553;SDS011;7878;44.632;10.942;2023-07-29T03:40:39;7.68;;;6.82;;
15553;SDS011;7878;44.632;10.942;2023-07-29T03:43:05;17.45;;;7.07;;
15553;SDS011;7878;44.632;10.942;2023-07-29T03:45:31;15.45;;;7.18;;
15553;SDS011;7878;44.632;10.942;2023-07-29T03:47:57;7.55;;;6.60;;
15553;SDS011;7878;44.632;10.942;2023-07-29T03:50:23;6.68;;;5.93;;
15553;SDS011;7878;44.632;10.942;2023-07-29T03:52:49;8.45;;;6.00;;
15553;SDS011;7878;44.632;10.942;2023-07-29T03:55:15;10.80;;;6.00;;
15553;SDS011;7878;44.632;10.942;2023-07-29T03:57:41;8.38;;;5.60;;
15553;SDS011;7878;44.632;10.942;2023-07-29T04:00:06;13.40;;;6.20;;
15553;SDS011;7878;44.632;10.942;2023-07-29T04:02:34;7.85;;;6.50;;
15553;SDS011;7878;44.632;10.942;2023-07-29T04:05:02;9.20;;;5.95;;
15553;SDS011;7878;44.632;10.942;2023-07-29T04:07:28;10.05;;;6.15;;
15553;SDS011;7878;44.632;10.942;2023-07-29T04:09:55;10.23;;;6.03;;
15553;SDS011;7878;44.632;10.942;2023-07-29T04:12:20;8.55;;;6.05;;
15553;SDS011;7878;44.632;10.942;2023-07-29T04:14:46;7.82;;;5.20;;
15553;SDS011;7878;44.632;10.942;2023-07-29T04:17:12;8.05;;;5.60;;
15553;SDS011;7878;44.632;10.942;2023-07-29T04:19:38;8.02;;;4.97;;
15553;SDS011;7878;44.632;10.942;2023-07-29T04:22:03;8.07;;;5.10;;
15553;SDS011;7878;44.632;10.942;2023-07-29T04:24:29;6.57;;;5.32;;
15553;SDS011;7878;44.632;10.942;2023-07-29T04:26:55;10.32;;;5.20;;
15553;SDS011;7878;44.632;10.942;2023-07-29T04:29:21;9.27;;;5.70;;
15553;SDS011;7878;44.632;10.942;2023-07-29T04:31:48;6.70;;;6.00;;
15553;SDS011;7878;44.632;10.942;2023-07-29T04:34:19;6.88;;;5.60;;
15553;SDS011;7878;44.632;10.942;2023-07-29T04:36:45;9.82;;;5.60;;
15553;SDS011;7878;44.632;10.942;2023-07-29T04:39:11;18.40;;;6.22;;
15553;SDS011;7878;44.632;10.942;2023-07-29T04:41:37;8.52;;;5.82;;
15553;SDS011;7878;44.632;10.942;2023-07-29T04:44:03;8.15;;;5.03;;
15553;SDS011;7878;44.632;10.942;2023-07-29T04:46:28;11.40;;;5.75;;
15553;SDS011;7878;44.632;10.942;2023-07-29T04:48:54;16.40;;;6.32;;
15553;SDS011;7878;44.632;10.942;2023-07-29T04:51:20;9.75;;;6.00;;
15553;SDS011;7878;44.632;10.942;2023-07-29T04:53:46;9.80;;;6.20;;
15553;SDS011;7878;44.632;10.942;2023-07-29T04:56:12;6.20;;;5.57;;
15553;SDS011;7878;44.632;10.942;2023-07-29T04:58:38;9.07;;;6.10;;
15553;SDS011;7878;44.632;10.942;2023-07-29T05:01:03;11.80;;;5.88;;
15553;SDS011;7878;44.632;10.942;2023-07-29T05:03:29;6.25;;;5.18;;
15553;SDS011;7878;44.632;10.942;2023-07-29T05:05:56;12.45;;;6.15;;
15553;SDS011;7878;44.632;10.942;2023-07-29T05:08:23;9.48;;;5.60;;
15553;SDS011;7878;44.632;10.942;2023-07-29T05:10:49;13.18;;;5.75;;
15553;SDS011;7878;44.632;10.942;2023-07-29T05:13:18;10.90;;;6.53;;
15553;SDS011;7878;44.632;10.942;2023-07-29T05:15:44;11.93;;;5.70;;
15553;SDS011;7878;44.632;10.942;2023-07-29T05:18:10;8.23;;;5.18;;
15553;SDS011;7878;44.632;10.942;2023-07-29T05:20:36;9.82;;;4.82;;
15553;SDS011;7878;44.632;10.942;2023-07-29T05:23:02;9.98;;;5.40;;
15553;SDS011;7878;44.632;10.942;2023-07-29T05:25:28;8.13;;;4.90;;
15553;SDS011;7878;44.632;10.942;2023-07-29T05:27:54;16.40;;;5.40;;
15553;SDS011;7878;44.632;10.942;2023-07-29T05:30:19;6.80;;;4.50;;
15553;SDS011;7878;44.632;10.942;2023-07-29T05:32:45;9.38;;;5.28;;
15553;SDS011;7878;44.632;10.942;2023-07-29T05:35:11;9.63;;;5.18;;
15553;SDS011;7878;44.632;10.942;2023-07-29T05:37:39;5.57;;;4.55;;
15553;SDS011;7878;44.632;10.942;2023-07-29T05:40:06;9.15;;;5.07;;
15553;SDS011;7878;44.632;10.942;2023-07-29T05:42:33;5.30;;;4.45;;
15553;SDS011;7878;44.632;10.942;2023-07-29T05:44:59;6.57;;;4.68;;
15553;SDS011;7878;44.632;10.942;2023-07-29T05:47:25;18.60;;;5.63;;
15553;SDS011;7878;44.632;10.942;2023-07-29T05:49:50;10.23;;;4.45;;
15553;SDS011;7878;44.632;10.942;2023-07-29T05:52:17;8.18;;;5.55;;
15553;SDS011;7878;44.632;10.942;2023-07-29T05:54:42;8.95;;;4.70;;
15553;SDS011;7878;44.632;10.942;2023-07-29T05:57:11;9.43;;;5.18;;
15553;SDS011;7878;44.632;10.942;2023-07-29T05:59:37;9.77;;;5.03;;
15553;SDS011;7878;44.632;10.942;2023-07-29T06:02:04;8.27;;;5.25;;
15553;SDS011;7878;44.632;10.942;2023-07-29T06:04:30;11.27;;;5.20;;
15553;SDS011;7878;44.632;10.942;2023-07-29T06:06:55;5.53;;;4.60;;
15553;SDS011;7878;44.632;10.942;2023-07-29T06:09:21;14.98;;;5.13;;
15553;SDS011;7878;44.632;10.942;2023-07-29T06:11:50;7.47;;;5.25;;
15553;SDS011;7878;44.632;10.942;2023-07-29T06:14:16;11.90;;;4.78;;
15553;SDS011;7878;44.632;10.942;2023-07-29T06:16:42;11.82;;;4.95;;
15553;SDS011;7878;44.632;10.942;2023-07-29T06:19:08;6.95;;;4.80;;
15553;SDS011;7878;44.632;10.942;2023-07-29T06:21:34;10.00;;;5.03;;
15553;SDS011;7878;44.632;10.942;2023-07-29T06:24:00;9.85;;;5.00;;
15553;SDS011;7878;44.632;10.942;2023-07-29T06:26:26;9.13;;;4.57;;
15553;SDS011;7878;44.632;10.942;2023-07-29T06:28:52;11.30;;;4.80;;
15553;SDS011;7878;44.632;10.942;2023-07-29T06:31:18;14.80;;;4.82;;
15553;SDS011;7878;44.632;10.942;2023-07-29T06:33:44;8.13;;;4.05;;
15553;SDS011;7878;44.632;10.942;2023-07-29T06:36:09;5.78;;;4.07;;
15553;SDS011;7878;44.632;10.942;2023-07-29T06:38:35;8.25;;;3.95;;
15553;SDS011;7878;44.632;10.942;2023-07-29T06:41:01;6.72;;;3.70;;
15553;SDS011;7878;44.632;10.942;2023-07-29T06:43:27;7.50;;;4.95;;
15553;SDS011;7878;44.632;10.942;2023-07-29T06:45:53;5.70;;;3.70;;
15553;SDS011;7878;44.632;10.942;2023-07-29T06:48:20;5.03;;;3.60;;
15553;SDS011;7878;44.632;10.942;2023-07-29T06:50:45;5.45;;;3.90;;
15553;SDS011;7878;44.632;10.942;2023-07-29T06:53:11;7.22;;;4.07;;
15553;SDS011;7878;44.632;10.942;2023-07-29T06:55:37;6.38;;;3.70;;
15553;SDS011;7878;44.632;10.942;2023-07-29T06:58:03;6.75;;;3.58;;
15553;SDS011;7878;44.632;10.942;2023-07-29T07:00:28;10.10;;;3.63;;
15553;SDS011;7878;44.632;10.942;2023-07-29T07:02:54;6.13;;;3.90;;
15553;SDS011;7878;44.632;10.942;2023-07-29T07:05:20;9.32;;;4.45;;
15553;SDS011;7878;44.632;10.942;2023-07-29T07:07:45;9.63;;;3.83;;
15553;SDS011;7878;44.632;10.942;2023-07-29T07:10:11;11.60;;;4.20;;
15553;SDS011;7878;44.632;10.942;2023-07-29T07:12:37;8.63;;;3.67;;
15553;SDS011;7878;44.632;10.942;2023-07-29T07:15:02;9.57;;;4.07;;
15553;SDS011;7878;44.632;10.942;2023-07-29T07:17:28;11.95;;;3.97;;
15553;SDS011;7878;44.632;10.942;2023-07-29T07:19:54;9.65;;;4.28;;
15553;SDS011;7878;44.632;10.942;2023-07-29T07:22:19;8.43;;;3.90;;
15553;SDS011;7878;44.632;10.942;2023-07-29T07:24:45;6.97;;;3.55;;
15553;SDS011;7878;44.632;10.942;2023-07-29T07:27:11;5.80;;;4.25;;
15553;SDS011;7878;44.632;10.942;2023-07-29T07:29:36;9.65;;;3.88;;
15553;SDS011;7878;44.632;10.942;2023-07-29T07:32:02;7.28;;;3.67;;
15553;SDS011;7878;44.632;10.942;2023-07-29T07:34:28;14.20;;;4.13;;
15553;SDS011;7878;44.632;10.942;2023-07-29T07:36:54;5.72;;;3.78;;
15553;SDS011;7878;44.632;10.942;2023-07-29T07:39:19;6.47;;;3.40;;
15553;SDS011;7878;44.632;10.942;2023-07-29T07:41:45;7.55;;;2.97;;
15553;SDS011;7878;44.632;10.942;2023-07-29T07:44:11;5.00;;;3.22;;
15553;SDS011;7878;44.632;10.942;2023-07-29T07:46:40;4.88;;;3.17;;
15553;SDS011;7878;44.632;10.942;2023-07-29T07:49:06;11.45;;;3.50;;
15553;SDS011;7878;44.632;10.942;2023-07-29T07:51:32;10.00;;;3.53;;
15553;SDS011;7878;44.632;10.942;2023-07-29T07:53:57;7.65;;;3.05;;
15553;SDS011;7878;44.632;10.942;2023-07-29T07:56:23;6.35;;;3.50;;
15553;SDS011;7878;44.632;10.942;2023-07-29T07:58:49;3.40;;;2.97;;
15553;SDS011;7878;44.632;10.942;2023-07-29T08:01:14;6.75;;;3.10;;
15553;SDS011;7878;44.632;10.942;2023-07-29T08:03:40;10.93;;;3.33;;
15553;SDS011;7878;44.632;10.942;2023-07-29T08:06:06;5.10;;;2.92;;
15553;SDS011;7878;44.632;10.942;2023-07-29T08:08:31;5.78;;;3.28;;
15553;SDS011;7878;44.632;10.942;2023-07-29T08:10:57;5.88;;;3.58;;
15553;SDS011;7878;44.632;10.942;2023-07-29T08:13:23;6.28;;;3.03;;
15553;SDS011;7878;44.632;10.942;2023-07-29T08:15:50;6.32;;;3.25;;
15553;SDS011;7878;44.632;10.942;2023-07-29T08:18:16;5.93;;;3.50;;
15553;SDS011;7878;44.632;10.942;2023-07-29T08:20:52;6.88;;;3.50;;
15553;SDS011;7878;44.632;10.942;2023-07-29T08:23:18;5.15;;;3.17;;
15553;SDS011;7878;44.632;10.942;2023-07-29T08:25:43;5.80;;;2.88;;
15553;SDS011;7878;44.632;10.942;2023-07-29T08:28:09;5.60;;;3.42;;
15553;SDS011;7878;44.632;10.942;2023-07-29T08:30:36;9.07;;;3.97;;
15553;SDS011;7878;44.632;10.942;2023-07-29T08:33:01;5.10;;;3.33;;
15553;SDS011;7878;44.632;10.942;2023-07-29T08:35:27;8.52;;;3.95;;
15553;SDS011;7878;44.632;10.942;2023-07-29T08:37:53;4.57;;;3.05;;
15553;SDS011;7878;44.632;10.942;2023-07-29T08:40:19;6.35;;;3.15;;
15553;SDS011;7878;44.632;10.942;2023-07-29T08:42:51;4.13;;;3.38;;
15553;SDS011;7878;44.632;10.942;2023-07-29T08:45:17;8.32;;;3.30;;
15553;SDS011;7878;44.632;10.942;2023-07-29T08:47:43;5.35;;;3.28;;
15553;SDS011;7878;44.632;10.942;2023-07-29T08:50:09;5.10;;;3.10;;
15553;SDS011;7878;44.632;10.942;2023-07-29T08:52:35;5.00;;;3.00;;
15553;SDS011;7878;44.632;10.942;2023-07-29T08:55:02;11.95;;;4.03;;
15553;SDS011;7878;44.632;10.942;2023-07-29T08:57:28;9.15;;;3.78;;
15553;SDS011;7878;44.632;10.942;2023-07-29T08:59:55;7.47;;;3.30;;
15553;SDS011;7878;44.632;10.942;2023-07-29T09:02:21;7.50;;;3.58;;
15553;SDS011;7878;44.632;10.942;2023-07-29T09:04:46;6.57;;;3.45;;
15553;SDS011;7878;44.632;10.942;2023-07-29T09:07:12;5.30;;;3.38;;
15553;SDS011;7878;44.632;10.942;2023-07-29T09:09:38;5.00;;;3.38;;
15553;SDS011;7878;44.632;10.942;2023-07-29T09:12:04;5.40;;;2.90;;
15553;SDS011;7878;44.632;10.942;2023-07-29T09:14:30;5.07;;;3.42;;
15553;SDS011;7878;44.632;10.942;2023-07-29T09:16:56;5.45;;;3.30;;
15553;SDS011;7878;44.632;10.942;2023-07-29T09:19:24;7.22;;;3.70;;
15553;SDS011;7878;44.632;10.942;2023-07-29T09:21:51;3.08;;;2.78;;
15553;SDS011;7878;44.632;10.942;2023-07-29T09:24:17;3.53;;;3.20;;
15553;SDS011;7878;44.632;10.942;2023-07-29T09:26:50;5.00;;;3.30;;
15553;SDS011;7878;44.632;10.942;2023-07-29T09:29:20;5.85;;;3.60;;
15553;SDS011;7878;44.632;10.942;2023-07-29T09:31:47;7.15;;;3.60;;
15553;SDS011;7878;44.632;10.942;2023-07-29T09:34:13;4.93;;;3.00;;
15553;SDS011;7878;44.632;10.942;2023-07-29T09:36:41;5.40;;;3.47;;
15553;SDS011;7878;44.632;10.942;2023-07-29T09:39:10;11.93;;;3.72;;
15553;SDS011;7878;44.632;10.942;2023-07-29T09:41:38;6.10;;;3.47;;
15553;SDS011;7878;44.632;10.942;2023-07-29T09:44:03;4.07;;;3.17;;
15553;SDS011;7878;44.632;10.942;2023-07-29T09:46:34;5.15;;;3.70;;
15553;SDS011;7878;44.632;10.942;2023-07-29T09:49:02;7.03;;;3.38;;
15553;SDS011;7878;44.632;10.942;2023-07-29T09:51:28;5.28;;;3.20;;
15553;SDS011;7878;44.632;10.942;2023-07-29T09:53:54;7.50;;;3.20;;
15553;SDS011;7878;44.632;10.942;2023-07-29T09:56:24;4.57;;;3.22;;
15553;SDS011;7878;44.632;10.942;2023-07-29T09:58:51;7.60;;;3.28;;
15553;SDS011;7878;44.632;10.942;2023-07-29T10:01:17;7.13;;;3.88;;
15553;SDS011;7878;44.632;10.942;2023-07-29T10:03:44;3.78;;;3.25;;
15553;SDS011;7878;44.632;10.942;2023-07-29T10:06:11;5.38;;;3.50;;
15553;SDS011;7878;44.632;10.942;2023-07-29T10:08:39;5.13;;;3.90;;
15553;SDS011;7878;44.632;10.942;2023-07-29T10:11:06;5.32;;;3.40;;
15553;SDS011;7878;44.632;10.942;2023-07-29T10:13:33;4.05;;;3.50;;
15553;SDS011;7878;44.632;10.942;2023-07-29T10:15:59;4.18;;;3.53;;
15553;SDS011;7878;44.632;10.942;2023-07-29T10:18:27;8.23;;;3.70;;
15553;SDS011;7878;44.632;10.942;2023-07-29T10:20:54;6.75;;;3.63;;
15553;SDS011;7878;44.632;10.942;2023-07-29T10:23:22;6.43;;;3.63;;
15553;SDS011;7878;44.632;10.942;2023-07-29T10:25:55;9.80;;;3.67;;
15553;SDS011;7878;44.632;10.942;2023-07-29T10:28:27;7.63;;;3.58;;
15553;SDS011;7878;44.632;10.942;2023-07-29T10:30:55;7.60;;;3.53;;
15553;SDS011;7878;44.632;10.942;2023-07-29T10:33:22;4.85;;;3.10;;
15553;SDS011;7878;44.632;10.942;2023-07-29T10:35:47;10.13;;;3.70;;
15553;SDS011;7878;44.632;10.942;2023-07-29T10:38:14;5.57;;;3.50;;
15553;SDS011;7878;44.632;10.942;2023-07-29T10:40:44;9.77;;;3.75;;
15553;SDS011;7878;44.632;10.942;2023-07-29T10:43:34;5.85;;;3.33;;
15553;SDS011;7878;44.632;10.942;2023-07-29T10:54:31;5.20;;;3.42;;
15553;SDS011;7878;44.632;10.942;2023-07-29T10:56:49;7.00;;;3.47;;
15553;SDS011;7878;44.632;10.942;2023-07-29T11:01:42;4.70;;;3.88;;
15553;SDS011;7878;44.632;10.942;2023-07-29T11:07:18;7.50;;;3.20;;
15553;SDS011;7878;44.632;10.942;2023-07-29T11:20:23;6.95;;;3.45;;
15553;SDS011;7878;44.632;10.942;2023-07-29T11:22:52;4.97;;;3.63;;
15553;SDS011;7878;44.632;10.942;2023-07-29T11:25:19;5.10;;;3.28;;
15553;SDS011;7878;44.632;10.942;2023-07-29T11:27:46;5.97;;;3.10;;
15553;SDS011;7878;44.632;10.942;2023-07-29T11:30:12;7.53;;;3.30;;
15553;SDS011;7878;44.632;10.942;2023-07-29T11:32:40;9.18;;;3.55;;
15553;SDS011;7878;44.632;10.942;2023-07-29T11:37:33;4.05;;;3.63;;
15553;SDS011;7878;44.632;10.942;2023-07-29T11:39:59;4.68;;;3.33;;
15553;SDS011;7878;44.632;10.942;2023-07-29T11:42:26;6.05;;;3.65;;
15553;SDS011;7878;44.632;10.942;2023-07-29T11:44:53;7.03;;;3.70;;
15553;SDS011;7878;44.632;10.942;2023-07-29T11:47:21;99.10;;;9.88;;
15553;SDS011;7878;44.632;10.942;2023-07-29T11:49:47;3.83;;;3.08;;
15553;SDS011;7878;44.632;10.942;2023-07-29T11:52:12;5.30;;;3.20;;
15553;SDS011;7878;44.632;10.942;2023-07-29T11:54:39;3.88;;;3.08;;
15553;SDS011;7878;44.632;10.942;2023-07-29T11:57:08;7.07;;;3.15;;
15553;SDS011;7878;44.632;10.942;2023-07-29T11:59:35;6.45;;;3.70;;
15553;SDS011;7878;44.632;10.942;2023-07-29T12:02:02;4.88;;;3.10;;
15553;SDS011;7878;44.632;10.942;2023-07-29T12:04:31;6.03;;;3.17;;
15553;SDS011;7878;44.632;10.942;2023-07-29T12:06:58;3.90;;;3.20;;
15553;SDS011;7878;44.632;10.942;2023-07-29T12:09:24;3.70;;;3.40;;
15553;SDS011;7878;44.632;10.942;2023-07-29T12:11:52;7.28;;;3.00;;
15553;SDS011;7878;44.632;10.942;2023-07-29T12:14:18;3.92;;;2.70;;
15553;SDS011;7878;44.632;10.942;2023-07-29T12:16:43;3.45;;;3.15;;
15553;SDS011;7878;44.632;10.942;2023-07-29T12:19:12;3.58;;;3.10;;
15553;SDS011;7878;44.632;10.942;2023-07-29T12:21:40;4.07;;;3.13;;
15553;SDS011;7878;44.632;10.942;2023-07-29T12:24:07;4.07;;;3.33;;
15553;SDS011;7878;44.632;10.942;2023-07-29T12:26:32;5.68;;;3.30;;
15553;SDS011;7878;44.632;10.942;2023-07-29T12:28:58;7.82;;;3.10;;
15553;SDS011;7878;44.632;10.942;2023-07-29T12:31:30;4.50;;;2.92;;
15553;SDS011;7878;44.632;10.942;2023-07-29T12:33:57;6.53;;;3.08;;
15553;SDS011;7878;44.632;10.942;2023-07-29T12:36:27;5.88;;;2.97;;
15553;SDS011;7878;44.632;10.942;2023-07-29T12:39:15;4.80;;;3.22;;
15553;SDS011;7878;44.632;10.942;2023-07-29T12:41:59;4.75;;;2.92;;
15553;SDS011;7878;44.632;10.942;2023-07-29T12:44:32;4.50;;;3.30;;
15553;SDS011;7878;44.632;10.942;2023-07-29T12:47:04;10.43;;;3.53;;
15553;SDS011;7878;44.632;10.942;2023-07-29T12:49:31;3.45;;;2.83;;
15553;SDS011;7878;44.632;10.942;2023-07-29T12:51:57;5.40;;;2.97;;
15553;SDS011;7878;44.632;10.942;2023-07-29T12:54:24;4.35;;;3.75;;
15553;SDS011;7878;44.632;10.942;2023-07-29T12:56:50;7.13;;;3.65;;
15553;SDS011;7878;44.632;10.942;2023-07-29T12:59:15;6.47;;;3.35;;
15553;SDS011;7878;44.632;10.942;2023-07-29T13:01:41;8.25;;;3.63;;
15553;SDS011;7878;44.632;10.942;2023-07-29T13:04:07;5.15;;;3.40;;
15553;SDS011;7878;44.632;10.942;2023-07-29T13:06:34;7.20;;;3.47;;
15553;SDS011;7878;44.632;10.942;2023-07-29T13:08:59;4.00;;;3.45;;
15553;SDS011;7878;44.632;10.942;2023-07-29T13:11:25;3.55;;;2.85;;
15553;SDS011;7878;44.632;10.942;2023-07-29T13:13:51;6.57;;;3.65;;
15553;SDS011;7878;44.632;10.942;2023-07-29T13:16:16;6.20;;;2.83;;
15553;SDS011;7878;44.632;10.942;2023-07-29T13:18:43;4.22;;;3.17;;
15553;SDS011;7878;44.632;10.942;2023-07-29T13:21:09;6.88;;;3.55;;
15553;SDS011;7878;44.632;10.942;2023-07-29T13:23:35;4.00;;;3.08;;
15553;SDS011;7878;44.632;10.942;2023-07-29T13:26:00;3.80;;;3.40;;
15553;SDS011;7878;44.632;10.942;2023-07-29T13:28:26;4.32;;;3.28;;
15553;SDS011;7878;44.632;10.942;2023-07-29T13:30:52;5.80;;;3.50;;
15553;SDS011;7878;44.632;10.942;2023-07-29T13:33:17;3.90;;;2.92;;
15553;SDS011;7878;44.632;10.942;2023-07-29T13:35:43;5.65;;;3.22;;
15553;SDS011;7878;44.632;10.942;2023-07-29T13:38:09;4.30;;;2.90;;
15553;SDS011;7878;44.632;10.942;2023-07-29T13:40:36;3.45;;;3.05;;
15553;SDS011;7878;44.632;10.942;2023-07-29T13:43:01;5.43;;;3.80;;
15553;SDS011;7878;44.632;10.942;2023-07-29T13:45:27;4.30;;;3.47;;
15553;SDS011;7878;44.632;10.942;2023-07-29T13:47:53;6.18;;;3.55;;
15553;SDS011;7878;44.632;10.942;2023-07-29T13:50:18;6.00;;;3.50;;
15553;SDS011;7878;44.632;10.942;2023-07-29T13:52:44;4.32;;;3.42;;
15553;SDS011;7878;44.632;10.942;2023-07-29T13:55:10;4.75;;;3.58;;
15553;SDS011;7878;44.632;10.942;2023-07-29T13:57:36;5.18;;;3.03;;
15553;SDS011;7878;44.632;10.942;2023-07-29T14:00:02;3.63;;;2.75;;
15553;SDS011;7878;44.632;10.942;2023-07-29T14:02:28;5.50;;;2.92;;
15553;SDS011;7878;44.632;10.942;2023-07-29T14:04:56;4.47;;;3.30;;
15553;SDS011;7878;44.632;10.942;2023-07-29T14:07:22;4.10;;;3.50;;
15553;SDS011;7878;44.632;10.942;2023-07-29T14:09:47;5.50;;;3.22;;
15553;SDS011;7878;44.632;10.942;2023-07-29T14:12:13;8.85;;;3.30;;
15553;SDS011;7878;44.632;10.942;2023-07-29T14:14:41;3.60;;;3.20;;
15553;SDS011;7878;44.632;10.942;2023-07-29T14:17:07;4.55;;;3.42;;
15553;SDS011;7878;44.632;10.942;2023-07-29T14:19:33;5.03;;;3.08;;
15553;SDS011;7878;44.632;10.942;2023-07-29T14:21:59;3.35;;;3.05;;
15553;SDS011;7878;44.632;10.942;2023-07-29T14:24:25;6.93;;;3.22;;
15553;SDS011;7878;44.632;10.942;2023-07-29T14:26:51;3.40;;;3.10;;
15553;SDS011;7878;44.632;10.942;2023-07-29T14:29:16;7.72;;;3.50;;
15553;SDS011;7878;44.632;10.942;2023-07-29T14:31:42;3.95;;;3.25;;
15553;SDS011;7878;44.632;10.942;2023-07-29T14:34:08;4.72;;;3.70;;
15553;SDS011;7878;44.632;10.942;2023-07-29T14:36:34;6.38;;;3.72;;
15553;SDS011;7878;44.632;10.942;2023-07-29T14:39:00;6.47;;;3.25;;
15553;SDS011;7878;44.632;10.942;2023-07-29T14:41:25;4.32;;;3.33;;
15553;SDS011;7878;44.632;10.942;2023-07-29T14:43:51;5.35;;;3.13;;
15553;SDS011;7878;44.632;10.942;2023-07-29T14:46:17;5.20;;;3.30;;
15553;SDS011;7878;44.632;10.942;2023-07-29T14:48:42;5.20;;;3.50;;
15553;SDS011;7878;44.632;10.942;2023-07-29T14:51:08;5.75;;;3.40;;
15553;SDS011;7878;44.632;10.942;2023-07-29T14:53:34;3.60;;;3.30;;
15553;SDS011;7878;44.632;10.942;2023-07-29T14:55:59;3.60;;;3.30;;
15553;SDS011;7878;44.632;10.942;2023-07-29T14:58:25;5.13;;;3.17;;
15553;SDS011;7878;44.632;10.942;2023-07-29T15:00:54;6.65;;;3.30;;
15553;SDS011;7878;44.632;10.942;2023-07-29T15:03:19;4.43;;;3.30;;
15553;SDS011;7878;44.632;10.942;2023-07-29T15:05:45;4.65;;;3.33;;
15553;SDS011;7878;44.632;10.942;2023-07-29T15:08:11;7.35;;;3.53;;
15553;SDS011;7878;44.632;10.942;2023-07-29T15:10:36;5.60;;;3.45;;
15553;SDS011;7878;44.632;10.942;2023-07-29T15:13:02;5.03;;;3.20;;
15553;SDS011;7878;44.632;10.942;2023-07-29T15:15:28;5.15;;;3.70;;
15553;SDS011;7878;44.632;10.942;2023-07-29T15:17:53;4.45;;;3.13;;
15553;SDS011;7878;44.632;10.942;2023-07-29T15:20:19;5.72;;;3.42;;